createdAt,value
2023-04-09T00:00:34.487Z,10.20
2023-04-09T00:03:02.685Z,10.20
2023-04-09T00:05:30.774Z,10.20
2023-04-09T00:07:58.864Z,10.20
2023-04-09T00:10:27.095Z,10.20
2023-04-09T00:12:55.334Z,10.20
2023-04-09T00:15:31.026Z,10.20
2023-04-09T00:18:00.333Z,10.20
2023-04-09T00:20:28.422Z,10.10
2023-04-09T00:22:56.562Z,10.20
2023-04-09T00:25:24.669Z,10.20
2023-04-09T00:27:52.741Z,10.20
2023-04-09T00:30:21.367Z,10.10
2023-04-09T00:32:51.015Z,10.10
2023-04-09T00:35:19.125Z,10.10
2023-04-09T00:37:47.348Z,10.00
2023-04-09T00:40:15.845Z,10.00
2023-04-09T00:42:43.924Z,10.00
2023-04-09T00:45:12.264Z,10.00
2023-04-09T00:47:43.154Z,10.10
2023-04-09T00:50:12.762Z,10.20
2023-04-09T00:52:40.973Z,10.20
2023-04-09T00:55:10.632Z,10.20
2023-04-09T00:57:38.726Z,10.20
2023-04-09T01:00:08.449Z,10.20
2023-04-09T01:02:36.873Z,10.10
2023-04-09T01:05:05.816Z,10.20
2023-04-09T01:07:48.847Z,10.10
2023-04-09T01:10:33.227Z,10.10
2023-04-09T01:13:08.311Z,10.10
2023-04-09T01:15:44.572Z,10.20
2023-04-09T01:18:20.154Z,10.10
2023-04-09T01:20:57.809Z,10.10
2023-04-09T01:23:36.515Z,10.00
2023-04-09T01:26:11.583Z,10.00
2023-04-09T01:28:54.252Z,10.00
2023-04-09T01:31:28.377Z,10.00
2023-04-09T01:33:57.765Z,10.00
2023-04-09T01:36:27.612Z,10.00
2023-04-09T01:38:57.973Z,10.10
2023-04-09T01:41:27.107Z,10.10
2023-04-09T01:43:57.374Z,10.10
2023-04-09T01:46:27.321Z,10.00
2023-04-09T01:48:56.827Z,10.00
2023-04-09T01:51:25.036Z,9.90
2023-04-09T01:53:53.125Z,9.90
2023-04-09T01:56:21.327Z,10.00
2023-04-09T01:58:49.519Z,10.00
2023-04-09T02:01:25.511Z,10.10
2023-04-09T02:03:57.728Z,9.90
2023-04-09T02:06:35.633Z,9.90
2023-04-09T02:09:06.282Z,9.90
2023-04-09T02:11:35.149Z,9.90
2023-04-09T02:14:05.367Z,9.80
2023-04-09T02:16:36.206Z,9.80
2023-04-09T02:19:04.269Z,9.80
2023-04-09T02:21:33.270Z,9.80
2023-04-09T02:24:01.529Z,9.80
2023-04-09T02:26:29.627Z,9.80
2023-04-09T02:28:59.547Z,9.70
2023-04-09T02:31:27.615Z,9.70
2023-04-09T02:33:57.041Z,9.80
2023-04-09T02:36:25.938Z,9.80
2023-04-09T02:38:54.117Z,9.70
2023-04-09T02:41:22.282Z,9.70
2023-04-09T02:43:50.318Z,9.80
2023-04-09T02:46:18.459Z,9.90
2023-04-09T02:48:46.585Z,9.90
2023-04-09T02:51:15.985Z,9.80
2023-04-09T02:53:45.560Z,9.80
2023-04-09T02:56:13.653Z,9.70
2023-04-09T02:58:41.762Z,9.80
2023-04-09T03:01:09.899Z,9.70
2023-04-09T03:03:40.084Z,9.80
2023-04-09T03:06:08.209Z,9.80
2023-04-09T03:08:37.630Z,9.70
2023-04-09T03:11:05.795Z,9.80
2023-04-09T03:13:33.823Z,9.80
2023-04-09T03:16:01.946Z,9.80
2023-04-09T03:18:30.104Z,9.80
2023-04-09T03:20:58.147Z,9.80
2023-04-09T03:23:27.937Z,9.80
2023-04-09T03:26:03.466Z,9.70
2023-04-09T03:28:36.097Z,9.70
2023-04-09T03:31:04.382Z,9.80
2023-04-09T03:33:36.842Z,9.80
2023-04-09T03:36:05.413Z,9.70
2023-04-09T03:38:55.425Z,9.70
2023-04-09T03:41:32.821Z,9.70
2023-04-09T03:44:04.559Z,9.80
2023-04-09T03:46:40.339Z,9.80
2023-04-09T03:49:10.293Z,9.70
2023-04-09T03:51:42.730Z,9.70
2023-04-09T03:54:11.035Z,9.70
2023-04-09T03:56:41.586Z,9.70
2023-04-09T03:59:13.241Z,9.60
2023-04-09T04:01:44.223Z,9.60
2023-04-09T04:04:12.361Z,9.60
2023-04-09T04:06:54.040Z,9.70
2023-04-09T04:09:34.685Z,9.60
2023-04-09T04:12:11.151Z,9.60
2023-04-09T04:15:09.273Z,9.50
2023-04-09T04:17:44.006Z,9.50
2023-04-09T04:20:24.353Z,9.50
2023-04-09T04:23:03.232Z,9.60
2023-04-09T04:25:32.004Z,9.60
2023-04-09T04:28:02.576Z,9.60
2023-04-09T04:30:38.481Z,9.50
2023-04-09T04:33:09.312Z,9.60
2023-04-09T04:35:44.885Z,9.60
2023-04-09T04:38:29.466Z,9.60
2023-04-09T04:40:59.615Z,9.60
2023-04-09T04:43:29.443Z,9.50
2023-04-09T04:46:00.228Z,9.60
2023-04-09T04:48:31.906Z,9.60
2023-04-09T04:51:01.535Z,9.60
2023-04-09T04:53:37.580Z,9.60
2023-04-09T04:56:14.462Z,9.50
2023-04-09T04:58:51.051Z,9.50
2023-04-09T05:01:21.242Z,9.60
2023-04-09T05:03:49.927Z,9.60
2023-04-09T05:06:32.272Z,9.60
2023-04-09T05:09:01.970Z,9.50
2023-04-09T05:11:38.344Z,9.50
2023-04-09T05:14:13.067Z,9.50
2023-04-09T05:16:41.479Z,9.50
2023-04-09T05:19:09.735Z,9.50
2023-04-09T05:21:39.075Z,9.60
2023-04-09T05:24:07.684Z,9.60
2023-04-09T05:26:36.252Z,9.60
2023-04-09T05:29:04.387Z,9.70
2023-04-09T05:31:36.222Z,9.70
2023-04-09T05:34:08.089Z,9.60
2023-04-09T05:36:42.958Z,9.60
2023-04-09T05:39:12.076Z,9.50
2023-04-09T05:41:40.691Z,9.60
2023-04-09T05:44:32.734Z,9.60
2023-04-09T05:47:08.072Z,9.60
2023-04-09T05:49:43.063Z,9.60
2023-04-09T05:52:16.574Z,9.60
2023-04-09T05:54:44.715Z,9.60
2023-04-09T05:57:16.471Z,9.60
2023-04-09T05:59:49.036Z,9.50
2023-04-09T06:02:18.503Z,9.70
2023-04-09T06:04:46.756Z,9.80
2023-04-09T06:07:16.422Z,9.70
2023-04-09T06:09:45.056Z,9.70
2023-04-09T06:12:13.072Z,9.70
2023-04-09T06:14:41.165Z,9.70
2023-04-09T06:17:09.345Z,9.70
2023-04-09T06:19:38.722Z,9.80
2023-04-09T06:22:07.372Z,9.80
2023-04-09T06:24:35.536Z,9.80
2023-04-09T06:27:03.550Z,9.80
2023-04-09T06:29:31.597Z,9.90
2023-04-09T06:31:59.640Z,9.90
2023-04-09T06:34:27.630Z,10.00
2023-04-09T06:36:56.961Z,9.90
2023-04-09T06:39:24.932Z,10.00
2023-04-09T06:41:53.236Z,10.00
2023-04-09T06:44:35.293Z,10.00
2023-04-09T06:47:03.294Z,10.10
2023-04-09T06:49:31.377Z,10.10
2023-04-09T06:52:01.352Z,10.10
2023-04-09T06:54:29.496Z,10.20
2023-04-09T06:56:57.563Z,10.20
2023-04-09T06:59:25.555Z,10.30
2023-04-09T07:01:54.724Z,10.30
2023-04-09T07:04:22.967Z,10.30
2023-04-09T07:06:51.552Z,10.40
2023-04-09T07:09:20.954Z,10.40
2023-04-09T07:11:48.953Z,10.40
2023-04-09T07:14:16.966Z,10.40
2023-04-09T07:16:46.600Z,10.50
2023-04-09T07:19:14.634Z,10.50
2023-04-09T07:21:42.697Z,10.50
2023-04-09T07:24:11.302Z,10.60
2023-04-09T07:26:41.342Z,10.50
2023-04-09T07:29:09.393Z,10.60
2023-04-09T07:31:37.428Z,10.60
2023-04-09T07:34:05.609Z,10.70
2023-04-09T07:36:33.645Z,10.70
2023-04-09T07:39:01.745Z,10.70
2023-04-09T07:41:29.896Z,10.70
2023-04-09T07:44:00.255Z,10.70
2023-04-09T07:46:28.363Z,10.80
2023-04-09T07:48:57.147Z,10.80
2023-04-09T07:51:26.874Z,10.80
2023-04-09T07:53:55.255Z,10.80
2023-04-09T07:56:23.333Z,10.90
2023-04-09T07:58:51.837Z,11.00
2023-04-09T08:01:24.637Z,11.00
2023-04-09T08:03:52.865Z,10.90
2023-04-09T08:06:21.009Z,10.90
2023-04-09T08:08:49.083Z,11.00
2023-04-09T08:11:18.437Z,11.00
2023-04-09T08:13:47.078Z,11.00
2023-04-09T08:16:15.496Z,11.10
2023-04-09T08:18:44.909Z,11.10
2023-04-09T08:21:12.923Z,11.20
2023-04-09T08:23:41.186Z,11.20
2023-04-09T08:26:09.241Z,11.30
2023-04-09T08:28:37.319Z,11.20
2023-04-09T08:31:05.393Z,11.30
2023-04-09T08:33:33.414Z,11.30
2023-04-09T08:36:03.524Z,11.30
2023-04-09T08:38:31.894Z,11.40
2023-04-09T08:40:59.913Z,11.40
2023-04-09T08:43:37.450Z,11.50
2023-04-09T08:46:12.854Z,11.50
2023-04-09T08:48:42.551Z,11.50
2023-04-09T08:51:14.338Z,11.50
2023-04-09T08:53:46.293Z,11.50
2023-04-09T08:56:15.760Z,11.60
2023-04-09T08:58:45.440Z,11.60
2023-04-09T09:01:21.462Z,11.60
2023-04-09T09:03:58.544Z,11.60
2023-04-09T09:06:31.974Z,11.70
2023-04-09T09:09:05.389Z,11.70
2023-04-09T09:11:33.705Z,11.70
2023-04-09T09:14:03.478Z,11.70
2023-04-09T09:16:33.225Z,11.70
2023-04-09T09:19:01.628Z,11.70
2023-04-09T09:21:31.377Z,11.70
2023-04-09T09:23:59.685Z,11.70
2023-04-09T09:26:30.030Z,11.80
2023-04-09T09:28:59.301Z,11.80
2023-04-09T09:31:27.482Z,11.90
2023-04-09T09:33:56.366Z,11.90
2023-04-09T09:36:36.755Z,11.90
2023-04-09T09:39:09.870Z,11.90
2023-04-09T09:41:38.242Z,11.90
2023-04-09T09:44:07.180Z,11.90
2023-04-09T09:46:37.292Z,11.90
2023-04-09T09:49:05.830Z,12.00
2023-04-09T09:51:37.932Z,11.90
2023-04-09T09:54:08.867Z,12.00
2023-04-09T09:56:39.550Z,12.00
2023-04-09T09:59:11.745Z,12.00
2023-04-09T10:01:41.322Z,12.00
2023-04-09T10:04:14.437Z,12.00
2023-04-09T10:06:46.010Z,12.10
2023-04-09T10:09:14.581Z,12.10
2023-04-09T10:11:45.524Z,12.10
2023-04-09T10:14:14.597Z,12.10
2023-04-09T10:16:42.948Z,12.10
2023-04-09T10:19:14.114Z,12.10
2023-04-09T10:21:53.437Z,12.20
2023-04-09T10:24:21.832Z,12.20
2023-04-09T10:26:50.395Z,12.20
2023-04-09T10:29:18.492Z,12.20
2023-04-09T10:31:48.481Z,12.20
2023-04-09T10:34:17.567Z,12.20
2023-04-09T10:36:51.602Z,12.30
2023-04-09T10:39:19.927Z,12.30
2023-04-09T10:41:50.046Z,12.30
2023-04-09T10:44:22.185Z,12.20
2023-04-09T10:46:51.262Z,12.20
2023-04-09T10:49:21.511Z,12.20
2023-04-09T10:51:52.924Z,12.20
2023-04-09T10:54:47.088Z,12.20
2023-04-09T10:57:17.826Z,12.10
2023-04-09T10:59:47.848Z,12.10
2023-04-09T11:02:55.902Z,12.10
2023-04-09T11:05:30.010Z,12.10
2023-04-09T11:08:05.930Z,12.10
2023-04-09T11:10:34.907Z,12.10
2023-04-09T11:13:03.391Z,12.10
2023-04-09T11:15:33.480Z,12.10
2023-04-09T11:18:02.270Z,12.10
2023-04-09T11:20:31.391Z,12.20
2023-04-09T11:23:01.613Z,12.20
2023-04-09T11:25:31.161Z,12.20
2023-04-09T11:27:59.546Z,12.20
2023-04-09T11:30:28.871Z,12.20
2023-04-09T11:32:57.007Z,12.20
2023-04-09T11:35:25.545Z,12.20
2023-04-09T11:37:54.131Z,12.20
2023-04-09T11:40:24.756Z,12.20
2023-04-09T11:42:54.206Z,12.20
2023-04-09T11:45:24.297Z,12.20
2023-04-09T11:47:53.601Z,12.10
2023-04-09T11:50:22.928Z,12.20
2023-04-09T11:52:52.395Z,12.20
2023-04-09T11:55:29.232Z,12.20
2023-04-09T11:58:00.926Z,12.20
2023-04-09T12:00:29.763Z,12.30
2023-04-09T12:03:02.455Z,12.40
2023-04-09T12:05:33.236Z,12.40
2023-04-09T12:08:03.166Z,12.40
2023-04-09T12:10:34.132Z,12.40
2023-04-09T12:13:04.029Z,12.40
2023-04-09T12:15:34.328Z,12.40
2023-04-09T12:18:02.485Z,12.40
2023-04-09T12:20:35.602Z,12.30
2023-04-09T12:23:05.770Z,12.30
2023-04-09T12:25:36.688Z,12.40
2023-04-09T12:28:05.683Z,12.50
2023-04-09T12:30:34.074Z,12.60
2023-04-09T12:33:03.601Z,12.50
2023-04-09T12:35:31.977Z,12.50
2023-04-09T12:38:00.618Z,12.50
2023-04-09T12:40:29.048Z,12.50
2023-04-09T12:42:58.458Z,12.50
2023-04-09T12:45:27.865Z,12.50
2023-04-09T12:47:56.008Z,12.50
2023-04-09T12:50:24.172Z,12.50
2023-04-09T12:52:52.206Z,12.40
2023-04-09T12:55:20.320Z,12.40
2023-04-09T12:57:51.287Z,12.40
2023-04-09T13:00:20.700Z,12.50
2023-04-09T13:02:49.013Z,12.40
2023-04-09T13:05:17.106Z,12.50
2023-04-09T13:07:45.668Z,12.50
2023-04-09T13:10:13.658Z,12.50
2023-04-09T13:12:41.683Z,12.50
2023-04-09T13:15:10.127Z,12.50
2023-04-09T13:17:39.498Z,12.50
2023-04-09T13:20:08.859Z,12.50
2023-04-09T13:22:37.113Z,12.60
2023-04-09T13:25:05.766Z,12.70
2023-04-09T13:27:33.806Z,12.70
2023-04-09T13:30:01.876Z,12.70
2023-04-09T13:32:30.070Z,12.80
2023-04-09T13:34:59.881Z,12.80
2023-04-09T13:37:28.031Z,12.80
2023-04-09T13:39:56.693Z,12.90
2023-04-09T13:42:24.800Z,12.90
2023-04-09T13:44:52.835Z,12.90
2023-04-09T13:47:21.762Z,12.80
2023-04-09T13:49:51.429Z,12.90
2023-04-09T13:52:20.810Z,12.90
2023-04-09T13:54:49.401Z,12.90
2023-04-09T13:57:17.728Z,12.90
2023-04-09T13:59:45.798Z,12.90
2023-04-09T14:02:14.089Z,12.90
2023-04-09T14:04:42.679Z,12.90
2023-04-09T14:07:10.849Z,13.00
2023-04-09T14:09:40.472Z,13.00
2023-04-09T14:12:08.523Z,13.00
2023-04-09T14:14:36.545Z,13.00
2023-04-09T14:17:04.599Z,13.10
2023-04-09T14:19:32.642Z,13.10
2023-04-09T14:22:00.813Z,13.10
2023-04-09T14:24:28.822Z,13.20
2023-04-09T14:26:59.428Z,13.20
2023-04-09T14:29:27.444Z,13.10
2023-04-09T14:31:57.162Z,13.10
2023-04-09T14:34:25.799Z,13.10
2023-04-09T14:36:53.831Z,13.00
2023-04-09T14:39:21.873Z,13.00
2023-04-09T14:41:49.899Z,13.00
2023-04-09T14:44:19.269Z,13.00
2023-04-09T14:46:47.453Z,12.90
2023-04-09T14:49:15.531Z,12.90
2023-04-09T14:51:43.647Z,12.90
2023-04-09T14:54:11.653Z,12.90
2023-04-09T14:56:39.661Z,12.90
2023-04-09T14:59:07.866Z,12.90
2023-04-09T15:01:37.266Z,12.90
2023-04-09T15:04:05.419Z,12.90
2023-04-09T15:06:33.509Z,12.90
2023-04-09T15:09:01.536Z,12.90
2023-04-09T15:11:29.551Z,12.90
2023-04-09T15:13:57.874Z,12.90
2023-04-09T15:16:27.981Z,12.80
2023-04-09T15:18:59.031Z,12.80
2023-04-09T15:21:27.704Z,12.90
2023-04-09T15:23:56.254Z,12.90
2023-04-09T15:26:24.291Z,13.00
2023-04-09T15:28:53.476Z,13.00
2023-04-09T15:31:21.696Z,13.00
2023-04-09T15:33:50.339Z,13.10
2023-04-09T15:36:19.802Z,13.10
2023-04-09T15:38:47.831Z,13.10
2023-04-09T15:41:16.959Z,13.10
2023-04-09T15:43:45.297Z,13.10
2023-04-09T15:46:14.131Z,13.20
2023-04-09T15:48:42.209Z,13.20
2023-04-09T15:51:10.503Z,13.20
2023-04-09T15:53:39.869Z,13.20
2023-04-09T15:56:10.284Z,13.20
2023-04-09T15:58:39.680Z,13.20
2023-04-09T16:01:08.491Z,13.20
2023-04-09T16:03:39.693Z,13.20
2023-04-09T16:06:09.072Z,13.20
2023-04-09T16:08:38.810Z,13.20
2023-04-09T16:11:08.200Z,13.20
2023-04-09T16:13:36.446Z,13.20
2023-04-09T16:16:04.832Z,13.20
2023-04-09T16:18:32.959Z,13.10
2023-04-09T16:21:01.025Z,13.10
2023-04-09T16:23:30.631Z,13.10
2023-04-09T16:26:00.626Z,13.00
2023-04-09T16:28:28.738Z,13.00
2023-04-09T16:30:56.834Z,13.00
2023-04-09T16:33:24.942Z,13.00
2023-04-09T16:35:53.044Z,13.00
2023-04-09T16:38:21.100Z,13.00
2023-04-09T16:40:49.148Z,13.00
2023-04-09T16:43:18.519Z,13.00
2023-04-09T16:45:46.615Z,13.00
2023-04-09T16:48:14.737Z,13.00
2023-04-09T16:50:42.846Z,13.00
2023-04-09T16:53:11.036Z,13.00
2023-04-09T16:55:39.077Z,13.00
2023-04-09T16:58:07.113Z,13.00
2023-04-09T17:00:36.529Z,13.00
2023-04-09T17:03:05.198Z,13.00
2023-04-09T17:05:33.783Z,13.00
2023-04-09T17:08:02.136Z,13.00
2023-04-09T17:10:30.583Z,13.00
2023-04-09T17:12:58.651Z,13.00
2023-04-09T17:15:27.241Z,13.00
2023-04-09T17:17:58.291Z,13.00
2023-04-09T17:20:26.910Z,13.00
2023-04-09T17:22:54.987Z,13.00
2023-04-09T17:25:23.407Z,13.00
2023-04-09T17:27:51.678Z,13.00
2023-04-09T17:30:20.857Z,13.00
2023-04-09T17:32:51.076Z,13.00
2023-04-09T17:35:20.685Z,12.90
2023-04-09T17:37:48.765Z,12.90
2023-04-09T17:40:18.644Z,12.90
2023-04-09T17:42:46.730Z,12.90
2023-04-09T17:45:14.837Z,12.90
2023-04-09T17:47:42.968Z,12.90
2023-04-09T17:50:11.398Z,12.90
2023-04-09T17:52:40.805Z,12.80
2023-04-09T17:55:11.614Z,12.90
2023-04-09T17:57:40.065Z,12.80
2023-04-09T18:00:09.601Z,12.70
2023-04-09T18:02:47.231Z,12.70
2023-04-09T18:05:15.758Z,12.70
2023-04-09T18:07:45.182Z,12.70
2023-04-09T18:10:13.578Z,12.60
2023-04-09T18:12:41.585Z,12.50
2023-04-09T18:15:10.433Z,12.60
2023-04-09T18:17:38.556Z,12.50
2023-04-09T18:20:07.496Z,12.50
2023-04-09T18:22:35.850Z,12.50
2023-04-09T18:25:05.999Z,12.50
2023-04-09T18:27:34.394Z,12.30
2023-04-09T18:30:02.743Z,12.30
2023-04-09T18:32:31.126Z,12.30
2023-04-09T18:34:59.365Z,12.30
2023-04-09T18:37:27.926Z,12.20
2023-04-09T18:39:56.120Z,12.20
2023-04-09T18:42:25.519Z,12.10
2023-04-09T18:44:54.119Z,12.10
2023-04-09T18:47:22.310Z,12.00
2023-04-09T18:49:50.417Z,12.00
2023-04-09T18:52:18.443Z,11.90
2023-04-09T18:54:46.541Z,11.90
2023-04-09T18:57:14.546Z,11.80
2023-04-09T18:59:45.596Z,11.80
2023-04-09T19:02:13.747Z,11.80
2023-04-09T19:04:42.066Z,11.70
2023-04-09T19:07:10.228Z,11.60
2023-04-09T19:09:38.564Z,11.50
2023-04-09T19:12:07.015Z,11.60
2023-04-09T19:14:36.372Z,11.60
2023-04-09T19:17:05.793Z,11.60
2023-04-09T19:19:33.904Z,11.60
2023-04-09T19:22:02.094Z,11.60
2023-04-09T19:24:30.097Z,11.60
2023-04-09T19:26:59.420Z,11.50
2023-04-09T19:29:27.471Z,11.40
2023-04-09T19:31:58.649Z,11.50
2023-04-09T19:34:28.115Z,11.50
2023-04-09T19:36:56.589Z,11.40
2023-04-09T19:39:24.673Z,11.40
2023-04-09T19:41:52.724Z,11.40
2023-04-09T19:44:21.117Z,11.40
2023-04-09T19:46:49.291Z,11.30
2023-04-09T19:49:17.377Z,11.20
2023-04-09T19:51:46.780Z,11.20
2023-04-09T19:54:16.507Z,11.20
2023-04-09T19:56:44.588Z,11.30
2023-04-09T19:59:12.662Z,11.30
2023-04-09T20:01:40.932Z,11.30
2023-04-09T20:04:09.239Z,11.30
2023-04-09T20:06:37.368Z,11.30
2023-04-09T20:09:07.125Z,11.20
2023-04-09T20:11:35.359Z,11.20
2023-04-09T20:14:03.739Z,11.20
2023-04-09T20:16:32.117Z,11.20
2023-04-09T20:19:00.350Z,11.20
2023-04-09T20:21:29.420Z,11.20
2023-04-09T20:23:57.491Z,11.10
2023-04-09T20:26:26.896Z,11.00
2023-04-09T20:28:55.101Z,11.00
2023-04-09T20:31:23.638Z,11.00
2023-04-09T20:33:51.699Z,11.00
2023-04-09T20:36:20.814Z,11.00
2023-04-09T20:38:49.440Z,11.00
2023-04-09T20:41:17.496Z,11.00
2023-04-09T20:43:46.904Z,10.90
2023-04-09T20:46:15.042Z,10.90
2023-04-09T20:48:43.265Z,10.90
2023-04-09T20:51:12.517Z,10.90
2023-04-09T20:53:40.557Z,10.90
2023-04-09T20:56:09.234Z,10.90
2023-04-09T20:58:37.714Z,10.90
2023-04-09T21:01:09.716Z,10.90
2023-04-09T21:03:39.058Z,10.90
2023-04-09T21:06:08.176Z,10.80
2023-04-09T21:08:36.427Z,10.70
2023-04-09T21:11:04.641Z,10.70
2023-04-09T21:13:40.386Z,10.60
2023-04-09T21:16:16.528Z,10.60
2023-04-09T21:18:45.004Z,10.60
2023-04-09T21:21:14.126Z,10.60
2023-04-09T21:23:42.458Z,10.60
2023-04-09T21:26:11.721Z,10.60
2023-04-09T21:28:39.890Z,10.60
2023-04-09T21:31:08.040Z,10.40
2023-04-09T21:33:39.135Z,10.50
2023-04-09T21:36:08.318Z,10.60
2023-04-09T21:38:36.677Z,10.50
2023-04-09T21:41:04.988Z,10.60
2023-04-09T21:43:33.015Z,10.50
2023-04-09T21:46:01.086Z,10.50
2023-04-09T21:48:30.581Z,10.50
2023-04-09T21:51:00.034Z,10.40
2023-04-09T21:53:28.141Z,10.40
2023-04-09T21:55:56.256Z,10.40
2023-04-09T21:58:24.349Z,10.40
2023-04-09T22:00:53.046Z,10.30
2023-04-09T22:03:21.673Z,10.40
2023-04-09T22:05:49.986Z,10.40
2023-04-09T22:08:19.376Z,10.40
2023-04-09T22:10:47.666Z,10.50
2023-04-09T22:13:15.696Z,10.50
2023-04-09T22:15:43.741Z,10.40
2023-04-09T22:18:11.843Z,10.30
2023-04-09T22:20:39.894Z,10.40
2023-04-09T22:23:09.627Z,10.30
2023-04-09T22:25:39.024Z,10.30
2023-04-09T22:28:07.260Z,10.30
2023-04-09T22:30:35.386Z,10.30
2023-04-09T22:33:03.543Z,10.20
2023-04-09T22:35:32.114Z,10.20
2023-04-09T22:38:00.377Z,10.20
2023-04-09T22:40:28.428Z,10.20
2023-04-09T22:42:57.821Z,10.10
2023-04-09T22:45:27.769Z,10.10
2023-04-09T22:47:56.865Z,10.20
2023-04-09T22:50:27.808Z,10.20
2023-04-09T22:52:56.042Z,10.20
2023-04-09T22:55:24.326Z,10.10
2023-04-09T22:57:52.366Z,10.10
2023-04-09T23:00:22.053Z,10.10
2023-04-09T23:02:50.990Z,10.00
2023-04-09T23:05:19.259Z,10.10
2023-04-09T23:07:48.159Z,10.10
2023-04-09T23:10:17.433Z,10.10
2023-04-09T23:12:45.603Z,10.10
2023-04-09T23:15:13.752Z,10.10
2023-04-09T23:17:43.207Z,10.10
2023-04-09T23:20:14.599Z,10.10
2023-04-09T23:22:42.814Z,10.00
2023-04-09T23:25:11.046Z,10.10
2023-04-09T23:27:38.957Z,10.10
2023-04-09T23:30:08.680Z,10.10
2023-04-09T23:32:36.945Z,10.10
2023-04-09T23:35:07.124Z,10.00
2023-04-09T23:37:35.109Z,10.00
2023-04-09T23:40:03.779Z,9.90
2023-04-09T23:42:33.844Z,9.90
2023-04-09T23:45:03.959Z,9.90
2023-04-09T23:47:33.402Z,9.90
2023-04-09T23:50:04.640Z,9.80
2023-04-09T23:52:35.056Z,9.70
2023-04-09T23:55:03.387Z,9.70
2023-04-09T23:57:31.678Z,9.70
2023-04-09T23:59:59.738Z,9.80
